Otis ANGB, Massachusetts
Current Conditions -  °F | °C
As of 3:55 AM on Monday 20 Oct 2014 (Local Time) from KFMH Reporting Station
Clear Clear  
Wind Chill: 32°   Ceiling: Unl
Heat Index: 39°   Visibility: 10mi
Dew Point: 28°   Wind: 10mph
Humidity: 65%   Direction: 300°WNW
Pressure: 30.01"   Gusts: NA
Location:  41.679°N, 70.5704°W
Report Text: KFMH 200755Z AUTO 30009KT 10SM CLR 04/M02 A3001 RMK AO2
Loading
Personal Weather Stations






























Interactive Weather Map
Tropical Storm Tracking
New forecast layout! Learn more

10-Day Weather Forecast

Advertisements
Track Severe Weather on mobile